Time;durP1;ratioP1;P1;durP2;ratioP2;P2;SDS_P1;SDS_P2;PMS_P1;PMS_P2;Temp;Humidity;BMP_temperature;BMP_pressure;BME280_temperature;BME280_humidity;BME280_pressure;Samples;Min_cycle;Max_cycle;Signal;HPM_P1;HPM_P2
2021/05/30 00:01:52;;;;;;;17.87;15.97;;;;;;;11.08;67.55;102488.50;5057452;28;20182;-71
2021/05/30 00:04:18;;;;;;;24.57;15.73;;;;;;;10.86;68.33;102479.00;5060958;28;20445;-71
2021/05/30 00:06:43;;;;;;;18.07;14.50;;;;;;;11.09;67.94;102482.44;5061363;28;20409;-71
2021/05/30 00:09:09;;;;;;;19.87;15.20;;;;;;;11.21;67.69;102482.88;5060838;28;20193;-70
2021/05/30 00:11:35;;;;;;;22.60;16.33;;;;;;;10.89;68.56;102481.72;5060786;28;20181;-71
2021/05/30 00:14:02;;;;;;;23.73;16.60;;;;;;;11.06;68.24;102485.81;5060464;28;20196;-71
2021/05/30 00:16:27;;;;;;;21.80;17.90;;;;;;;11.09;67.44;102475.47;5060591;28;20420;-70
2021/05/30 00:18:52;;;;;;;23.87;16.43;;;;;;;11.03;68.35;102483.13;5060570;28;20419;-71
2021/05/30 00:21:17;;;;;;;23.87;16.87;;;;;;;11.00;68.27;102480.41;5061067;28;20252;-70
2021/05/30 00:23:43;;;;;;;21.43;16.83;;;;;;;11.27;67.46;102480.50;5060550;28;20169;-70
2021/05/30 00:26:08;;;;;;;27.17;17.53;;;;;;;11.06;67.91;102483.22;5060370;28;20605;-70
2021/05/30 00:28:33;;;;;;;24.50;18.30;;;;;;;11.20;67.89;102494.13;5060864;28;20233;-70
2021/05/30 00:30:59;;;;;;;23.10;18.27;;;;;;;10.99;68.15;102494.28;5060451;28;20235;-71
2021/05/30 00:33:24;;;;;;;26.97;18.10;;;;;;;11.06;68.11;102492.78;5060386;28;20201;-71
2021/05/30 00:35:49;;;;;;;26.97;18.50;;;;;;;11.02;68.09;102494.38;5061022;28;20559;-70
2021/05/30 00:38:14;;;;;;;28.40;18.60;;;;;;;10.98;68.56;102494.22;5060298;28;20204;-70
2021/05/30 00:40:43;;;;;;;21.43;17.57;;;;;;;11.07;68.31;102495.44;5060366;28;20272;-70
2021/05/30 00:43:08;;;;;;;30.73;18.67;;;;;;;11.10;67.99;102502.50;5060506;28;20497;-71
2021/05/30 00:45:34;;;;;;;24.60;19.57;;;;;;;10.93;68.19;102492.34;5060158;28;20444;-71
2021/05/30 00:47:59;;;;;;;24.40;19.30;;;;;;;11.08;67.98;102493.72;5060238;28;20591;-71
2021/05/30 00:50:25;;;;;;;27.33;20.73;;;;;;;11.15;68.17;102494.81;5060566;28;20180;-70
2021/05/30 00:52:50;;;;;;;33.17;20.13;;;;;;;10.94;68.70;102488.00;5059888;28;20173;-71
2021/05/30 00:55:16;;;;;;;26.27;21.37;;;;;;;11.07;68.25;102492.84;5060005;28;20219;-70
2021/05/30 00:57:41;;;;;;;30.13;21.70;;;;;;;11.04;69.04;102487.50;5059676;28;20173;-71
2021/05/30 01:00:08;;;;;;;25.07;20.00;;;;;;;10.99;68.54;102489.06;5059958;28;20177;-71
2021/05/30 01:02:34;;;;;;;28.47;22.13;;;;;;;10.91;68.75;102485.28;5059755;28;20193;-72
2021/05/30 01:04:59;;;;;;;28.70;22.80;;;;;;;10.90;68.56;102483.50;5060336;28;20821;-72
2021/05/30 01:07:25;;;;;;;33.83;22.50;;;;;;;11.02;69.03;102480.47;5059601;28;20216;-74
2021/05/30 01:09:51;;;;;;;27.20;22.83;;;;;;;10.83;69.42;102482.38;5059566;28;20204;-73
2021/05/30 01:12:17;;;;;;;31.30;22.20;;;;;;;10.76;69.13;102485.63;5060089;28;20186;-72
2021/05/30 01:14:43;;;;;;;35.57;23.00;;;;;;;10.63;69.52;102479.03;5059218;28;20412;-72
2021/05/30 01:17:09;;;;;;;32.40;23.60;;;;;;;10.54;70.08;102483.91;5059492;28;20431;-71
2021/05/30 01:19:36;;;;;;;27.77;20.90;;;;;;;10.66;70.08;102476.53;5060031;28;20554;-73
2021/05/30 01:22:02;;;;;;;33.67;21.70;;;;;;;10.77;69.36;102479.53;5059310;28;20821;-71
2021/05/30 01:24:27;;;;;;;28.40;20.73;;;;;;;10.68;70.23;102484.44;5059294;28;20490;-72
2021/05/30 01:26:53;;;;;;;29.83;21.47;;;;;;;10.76;70.13;102483.00;5059916;28;20460;-71
2021/05/30 01:29:18;;;;;;;29.27;21.77;;;;;;;10.79;69.26;102484.00;5059326;28;20181;-73
2021/05/30 01:31:44;;;;;;;28.70;21.60;;;;;;;10.74;70.02;102489.88;5058434;28;20181;-72
2021/05/30 01:34:09;;;;;;;30.07;21.43;;;;;;;10.82;69.25;102485.81;5059876;28;20181;-72
2021/05/30 01:36:34;;;;;;;29.17;22.23;;;;;;;10.74;69.81;102488.16;5059113;28;20173;-71
2021/05/30 01:39:00;;;;;;;31.27;21.30;;;;;;;10.81;69.45;102485.78;5059210;28;20173;-70
2021/05/30 01:41:25;;;;;;;30.20;22.03;;;;;;;10.78;69.67;102489.16;5059355;28;20176;-70
2021/05/30 01:43:51;;;;;;;33.63;21.13;;;;;;;10.74;70.09;102496.00;5059011;28;20192;-69
2021/05/30 01:46:16;;;;;;;30.47;21.00;;;;;;;10.65;70.58;102490.44;5059089;28;20180;-70
2021/05/30 01:48:41;;;;;;;27.10;21.70;;;;;;;10.76;69.57;102491.72;5058799;28;20280;-70
2021/05/30 01:51:07;;;;;;;27.23;20.63;;;;;;;10.79;69.44;102486.59;5058782;28;20260;-71
2021/05/30 01:53:39;;;;;;;32.53;21.57;;;;;;;10.61;70.44;102494.63;5059569;28;20296;-70
2021/05/30 01:58:31;;;;;;;25.53;20.37;;;;;;;10.78;69.69;102492.66;5058880;28;20500;-70
2021/05/30 02:00:56;;;;;;;32.73;20.63;;;;;;;10.68;69.85;102494.88;5057954;28;20173;-69
2021/05/30 02:03:23;;;;;;;28.27;20.60;;;;;;;10.78;69.93;102490.06;5059200;28;20411;-69
2021/05/30 02:05:51;;;;;;;31.87;22.13;;;;;;;10.45;70.62;102493.16;5057815;28;20420;-71
2021/05/30 02:08:17;;;;;;;28.93;21.13;;;;;;;10.61;70.46;102485.94;5057718;28;20475;-70
2021/05/30 02:10:42;;;;;;;25.70;19.43;;;;;;;10.60;70.53;102494.59;5059248;28;20404;-70
2021/05/30 02:13:08;;;;;;;31.87;22.00;;;;;;;10.56;70.02;102484.88;5058393;28;20199;-70
2021/05/30 02:15:34;;;;;;;27.73;20.60;;;;;;;10.75;69.76;102487.31;5058430;28;20165;-70
2021/05/30 02:18:00;;;;;;;34.70;23.43;;;;;;;10.51;71.00;102482.06;5059068;28;20585;-69
2021/05/30 02:20:31;;;;;;;29.53;20.53;;;;;;;10.55;70.08;102490.91;5058561;28;20166;-70
2021/05/30 02:22:56;;;;;;;34.13;21.87;;;;;;;10.58;70.56;102489.31;5058254;28;20440;-69
2021/05/30 02:25:21;;;;;;;30.33;20.77;;;;;;;10.70;70.43;102486.28;5057760;28;20466;-71
2021/05/30 02:27:47;;;;;;;31.73;20.67;;;;;;;10.68;69.87;102482.72;5058371;28;20232;-70
2021/05/30 02:30:12;;;;;;;26.63;20.27;;;;;;;10.43;71.04;102486.09;5058552;28;20181;-72
2021/05/30 02:32:38;;;;;;;32.57;22.10;;;;;;;10.56;70.46;102487.47;5057916;28;20554;-70
2021/05/30 02:35:03;;;;;;;33.53;22.97;;;;;;;10.43;70.75;102486.09;5058111;28;20185;-69
2021/05/30 02:37:29;;;;;;;34.50;22.00;;;;;;;10.61;70.46;102492.03;5058707;28;20177;-71
2021/05/30 02:39:54;;;;;;;28.47;21.47;;;;;;;10.72;70.12;102486.34;5058158;28;20207;-70
2021/05/30 02:42:19;;;;;;;29.10;22.20;;;;;;;10.78;69.49;102483.94;5058030;28;20593;-71
2021/05/30 02:44:44;;;;;;;30.03;22.27;;;;;;;10.49;70.55;102490.69;5058563;28;20176;-70
2021/05/30 02:47:10;;;;;;;30.13;22.73;;;;;;;10.52;70.66;102485.59;5058045;28;20208;-70
2021/05/30 02:49:36;;;;;;;36.93;23.83;;;;;;;10.45;71.05;102493.16;5058033;28;20170;-70
2021/05/30 02:52:02;;;;;;;33.50;22.60;;;;;;;10.45;70.59;102484.47;5058204;28;20173;-71
2021/05/30 02:54:27;;;;;;;34.73;25.10;;;;;;;10.64;70.10;102485.16;5057969;28;20431;-70
2021/05/30 02:56:53;;;;;;;31.40;23.47;;;;;;;10.35;70.99;102493.66;5058113;28;20404;-70
2021/05/30 02:59:18;;;;;;;32.20;22.57;;;;;;;10.40;70.92;102486.88;5058602;28;20189;-70
2021/05/30 03:01:43;;;;;;;34.03;22.40;;;;;;;10.52;70.28;102491.66;5057833;28;20169;-70
2021/05/30 03:04:09;;;;;;;36.27;23.07;;;;;;;10.37;70.65;102491.09;5057934;28;20437;-69
2021/05/30 03:06:34;;;;;;;32.57;24.60;;;;;;;10.44;70.63;102490.50;5058072;28;20169;-70
2021/05/30 03:09:00;;;;;;;39.20;24.17;;;;;;;10.45;70.25;102482.72;5057940;28;20194;-71
2021/05/30 03:11:26;;;;;;;33.10;23.47;;;;;;;10.42;71.15;102490.44;5057829;28;20174;-71
2021/05/30 03:13:52;;;;;;;30.17;22.63;;;;;;;10.66;70.59;102484.34;5058314;28;20351;-71
2021/05/30 03:16:18;;;;;;;30.77;23.70;;;;;;;10.58;70.46;102480.56;5057951;28;20415;-70
2021/05/30 03:18:43;;;;;;;32.70;23.63;;;;;;;10.61;70.28;102480.72;5057832;28;20427;-71
2021/05/30 03:21:08;;;;;;;32.17;23.50;;;;;;;10.44;70.65;102486.19;5058508;28;20248;-70
2021/05/30 03:23:34;;;;;;;29.07;21.80;;;;;;;10.65;70.17;102479.09;5057650;28;20204;-70
2021/05/30 03:25:59;;;;;;;28.90;22.30;;;;;;;10.50;70.47;102482.00;5057661;28;20225;-70
2021/05/30 03:28:25;;;;;;;31.30;23.00;;;;;;;10.94;69.24;102485.38;5058275;28;20198;-71
2021/05/30 03:30:50;;;;;;;29.93;22.40;;;;;;;10.69;70.41;102480.97;5057845;28;20178;-70
2021/05/30 03:33:15;;;;;;;29.00;20.03;;;;;;;10.60;70.54;102478.94;5057560;28;20169;-71
2021/05/30 03:35:41;;;;;;;29.50;20.80;;;;;;;10.63;70.25;102481.66;5058426;28;20197;-70
2021/05/30 03:38:09;;;;;;;29.60;22.10;;;;;;;10.50;70.90;102487.22;5061424;28;20193;-71
2021/05/30 03:40:44;;;;;;;23.97;20.40;;;;;;;11.07;69.52;102484.13;5061494;28;20162;-70
2021/05/30 03:43:09;;;;;;;25.30;18.80;;;;;;;10.98;69.39;102486.41;5061254;28;20403;-70
2021/05/30 03:45:34;;;;;;;28.50;20.47;;;;;;;11.53;67.29;102493.56;5061465;28;20695;-70
2021/05/30 03:48:00;;;;;;;23.90;20.47;;;;;;;12.01;65.66;102484.69;5061525;28;20268;-71
2021/05/30 03:50:26;;;;;;;23.83;17.47;;;;;;;11.80;65.12;102487.47;5061244;28;20200;-71
2021/05/30 03:52:51;;;;;;;25.97;19.43;;;;;;;11.57;66.78;102490.19;5061265;28;20181;-71
2021/05/30 03:55:17;;;;;;;24.10;17.60;;;;;;;11.04;68.59;102487.50;5061606;28;20166;-71
2021/05/30 03:57:42;;;;;;;37.47;18.03;;;;;;;11.33;68.02;102492.00;5061168;28;20558;-70
2021/05/30 04:00:10;;;;;;;32.33;18.30;;;;;;;10.87;70.03;102493.84;5060906;28;20166;-71
2021/05/30 04:02:35;;;;;;;30.17;20.03;;;;;;;10.82;70.13;102488.44;5061168;28;20621;-71
2021/05/30 04:05:00;;;;;;;58.70;21.20;;;;;;;10.81;70.46;102483.16;5060943;28;20503;-71
2021/05/30 04:07:26;;;;;;;53.80;21.70;;;;;;;10.90;70.45;102497.44;5060886;28;20212;-71
2021/05/30 04:09:51;;;;;;;108.47;27.60;;;;;;;10.92;70.81;102492.28;5061213;28;20254;-71
2021/05/30 04:12:17;;;;;;;56.90;26.97;;;;;;;10.87;70.80;102489.50;5060976;28;20173;-70
2021/05/30 04:14:42;;;;;;;38.63;26.67;;;;;;;11.12;70.50;102488.66;5060738;28;20256;-71
2021/05/30 04:17:07;;;;;;;86.97;27.87;;;;;;;10.78;70.96;102487.44;5061336;28;20178;-70
2021/05/30 04:19:33;;;;;;;46.87;25.97;;;;;;;10.81;70.91;102493.59;5060868;28;20307;-71
2021/05/30 04:21:58;;;;;;;47.50;24.83;;;;;;;11.03;71.04;102487.47;5060626;28;20256;-71
2021/05/30 04:24:23;;;;;;;60.60;24.53;;;;;;;11.00;70.63;102487.31;5060865;28;20237;-72
2021/05/30 04:26:49;;;;;;;38.80;27.00;;;;;;;11.15;70.74;102484.38;5060477;28;20220;-71
2021/05/30 04:29:14;;;;;;;33.13;23.47;;;;;;;10.84;71.36;102489.41;5060525;28;20424;-71
2021/05/30 04:31:39;;;;;;;35.30;23.00;;;;;;;10.76;72.15;102496.94;5060422;28;20256;-71
2021/05/30 04:34:05;;;;;;;35.13;23.57;;;;;;;11.20;70.41;102493.25;5060414;28;20412;-71
2021/05/30 04:36:30;;;;;;;29.07;22.20;;;;;;;11.49;68.79;102499.50;5060777;28;20197;-71
2021/05/30 04:38:56;;;;;;;29.97;21.57;;;;;;;11.54;69.09;102497.94;5059620;28;20173;-71
2021/05/30 04:41:21;;;;;;;27.70;21.70;;;;;;;11.84;68.23;102501.50;5060046;28;20201;-71
2021/05/30 04:43:46;;;;;;;29.13;21.67;;;;;;;11.83;68.12;102500.63;5060920;28;20544;-71
2021/05/30 04:46:11;;;;;;;43.13;21.47;;;;;;;11.30;70.22;102495.38;5060154;28;20441;-71
2021/05/30 04:48:37;;;;;;;29.07;21.10;;;;;;;11.73;68.67;102502.06;5059252;28;20229;-70
2021/05/30 04:51:05;;;;;;;26.27;20.60;;;;;;;11.87;68.19;102499.00;5059595;28;20176;-72
2021/05/30 04:53:34;;;;;;;28.20;21.80;;;;;;;12.28;66.81;102491.63;5060353;28;20531;-70
2021/05/30 04:56:01;;;;;;;32.80;21.73;;;;;;;11.90;68.04;102491.25;5060169;28;20399;-71
2021/05/30 04:58:26;;;;;;;28.00;22.03;;;;;;;12.11;67.92;102484.13;5060465;28;20394;-70
2021/05/30 05:00:52;;;;;;;27.30;20.93;;;;;;;12.29;66.80;102489.03;5059922;28;20420;-70
2021/05/30 05:03:17;;;;;;;28.20;22.13;;;;;;;12.01;67.45;102491.66;5059821;28;20181;-71
2021/05/30 05:05:42;;;;;;;29.90;20.67;;;;;;;12.24;67.70;102492.38;5060216;28;20227;-71
2021/05/30 05:08:08;;;;;;;31.17;21.70;;;;;;;12.19;67.63;102493.94;5059541;28;20201;-71
2021/05/30 05:10:33;;;;;;;27.83;20.27;;;;;;;12.24;68.06;102492.38;5059785;28;20216;-71
2021/05/30 05:12:58;;;;;;;28.53;21.40;;;;;;;11.91;68.73;102495.66;5060444;28;20212;-71
2021/05/30 05:15:24;;;;;;;32.67;21.03;;;;;;;12.38;68.00;102492.78;5059583;28;20177;-72
2021/05/30 05:17:49;;;;;;;33.20;21.13;;;;;;;12.10;68.63;102498.03;5058784;28;20177;-71
2021/05/30 05:20:14;;;;;;;26.60;19.80;;;;;;;11.77;68.78;102497.81;5059844;28;20522;-71
2021/05/30 05:22:39;;;;;;;25.30;18.23;;;;;;;12.15;68.13;102484.22;5059349;28;20292;-72
2021/05/30 05:25:05;;;;;;;36.27;20.10;;;;;;;11.85;69.01;102504.16;5059425;28;20304;-72
2021/05/30 05:27:31;;;;;;;26.03;18.67;;;;;;;11.85;69.17;102498.06;5059526;28;20200;-73
2021/05/30 05:29:56;;;;;;;23.80;17.87;;;;;;;11.88;68.97;102490.31;5059421;28;20209;-73
2021/05/30 05:32:21;;;;;;;24.80;17.27;;;;;;;11.79;68.63;102496.16;5059123;28;20675;-73
2021/05/30 05:34:46;;;;;;;22.93;18.07;;;;;;;11.51;69.75;102496.94;5059620;28;20170;-73
2021/05/30 05:37:12;;;;;;;28.57;18.80;;;;;;;12.24;67.95;102490.63;5059174;28;20181;-72
2021/05/30 05:39:37;;;;;;;27.13;18.43;;;;;;;11.84;68.49;102499.81;5059164;28;20173;-73
2021/05/30 05:42:03;;;;;;;24.93;18.90;;;;;;;12.00;68.51;102487.25;5059269;28;20500;-72
2021/05/30 05:44:28;;;;;;;23.57;18.00;;;;;;;11.23;70.85;102488.13;5059016;28;20177;-72
2021/05/30 05:46:53;;;;;;;25.77;18.70;;;;;;;11.57;69.91;102494.56;5058844;28;20231;-72
2021/05/30 05:49:19;;;;;;;23.60;17.20;;;;;;;11.70;68.86;102501.06;5059902;28;20177;-73
2021/05/30 05:51:44;;;;;;;24.30;18.43;;;;;;;11.68;68.74;102498.41;5059964;28;20227;-73
2021/05/30 05:54:09;;;;;;;24.83;18.60;;;;;;;11.95;68.25;102500.19;5058871;28;20178;-73
2021/05/30 05:56:34;;;;;;;21.90;17.00;;;;;;;11.89;68.21;102502.56;5059506;28;20166;-71
2021/05/30 05:59:00;;;;;;;26.93;18.53;;;;;;;11.86;67.99;102495.50;5058787;28;20182;-71
2021/05/30 06:01:25;;;;;;;27.90;18.60;;;;;;;12.20;66.84;102493.09;5058487;28;20177;-71
2021/05/30 06:03:50;;;;;;;26.60;18.87;;;;;;;12.16;66.79;102496.47;5059053;28;20227;-71
2021/05/30 06:06:17;;;;;;;21.17;17.63;;;;;;;12.30;66.41;102488.22;5058426;28;20181;-71
2021/05/30 06:08:42;;;;;;;25.40;18.00;;;;;;;12.57;65.63;102483.75;5058466;28;20304;-72
2021/05/30 06:11:08;;;;;;;26.00;18.83;;;;;;;12.41;66.82;102495.50;5058750;28;20448;-70
2021/05/30 06:13:33;;;;;;;22.97;19.27;;;;;;;12.30;66.05;102495.19;5058355;28;20510;-71
2021/05/30 06:15:58;;;;;;;19.23;16.97;;;;;;;12.41;65.56;102498.13;5058021;28;20177;-71
2021/05/30 06:18:24;;;;;;;22.47;17.90;;;;;;;12.73;65.03;102492.94;5058982;28;20178;-71
2021/05/30 06:20:49;;;;;;;23.10;17.73;;;;;;;12.55;65.28;102488.94;5058349;28;20592;-74
2021/05/30 06:23:15;;;;;;;24.10;18.40;;;;;;;12.62;65.40;102490.00;5058225;28;20188;-74
2021/05/30 06:25:42;;;;;;;25.00;18.83;;;;;;;12.76;65.09;102493.06;5058295;28;20225;-73
2021/05/30 06:28:07;;;;;;;22.80;17.77;;;;;;;13.25;63.36;102483.03;5058090;28;20201;-71
2021/05/30 06:30:39;;;;;;;21.90;17.73;;;;;;;13.38;62.86;102487.78;5058328;28;20849;-70
2021/05/30 06:33:06;;;;;;;21.63;17.30;;;;;;;13.23;62.99;102484.72;5057999;28;20398;-71
2021/05/30 06:35:32;;;;;;;24.00;18.10;;;;;;;13.67;62.27;102490.25;5058223;28;20746;-72
2021/05/30 06:37:58;;;;;;;24.23;18.40;;;;;;;13.29;62.90;102490.13;5058580;28;20381;-72
2021/05/30 06:40:23;;;;;;;20.90;17.23;;;;;;;13.25;63.01;102488.28;5058082;28;20511;-71
2021/05/30 06:42:49;;;;;;;22.97;18.03;;;;;;;13.68;62.43;102486.81;5057886;28;20177;-71
2021/05/30 06:45:15;;;;;;;23.57;18.80;;;;;;;14.04;61.13;102483.28;5058317;28;20253;-71
2021/05/30 06:47:40;;;;;;;22.67;17.53;;;;;;;13.67;62.29;102495.50;5057986;28;20521;-72
2021/05/30 06:50:06;;;;;;;24.10;17.63;;;;;;;13.77;61.57;102492.28;5058096;28;20178;-71
2021/05/30 06:52:31;;;;;;;21.00;17.00;;;;;;;13.54;62.67;102496.03;5058209;28;20184;-72
2021/05/30 06:54:57;;;;;;;22.37;17.20;;;;;;;14.17;60.62;102488.78;5057940;28;20408;-71
2021/05/30 06:57:22;;;;;;;19.70;15.87;;;;;;;14.18;59.59;102495.81;5058115;28;20173;-71
2021/05/30 06:59:48;;;;;;;21.87;17.30;;;;;;;14.20;59.87;102496.75;5058502;28;20201;-72
2021/05/30 07:02:14;;;;;;;18.10;15.40;;;;;;;14.40;58.87;102499.84;5057770;28;20251;-71
2021/05/30 07:04:39;;;;;;;20.13;14.97;;;;;;;15.17;56.58;102490.91;5057817;28;20173;-72
2021/05/30 07:07:05;;;;;;;14.80;13.40;;;;;;;16.10;53.37;102487.22;5058379;28;20680;-72
2021/05/30 07:09:30;;;;;;;15.93;14.03;;;;;;;17.13;50.82;102477.09;5057959;28;20196;-72
2021/05/30 07:11:55;;;;;;;13.80;12.40;;;;;;;16.24;52.78;102485.69;5059742;28;20177;-73
2021/05/30 07:14:21;;;;;;;16.23;13.37;;;;;;;15.40;55.73;102485.22;5061705;28;20180;-72
2021/05/30 07:16:46;;;;;;;17.13;13.17;;;;;;;14.85;57.57;102487.66;5061888;28;20519;-72
2021/05/30 07:19:11;;;;;;;16.10;13.10;;;;;;;15.08;56.15;102480.25;5061814;28;20215;-72
2021/05/30 07:21:37;;;;;;;14.27;12.73;;;;;;;15.14;56.60;102475.06;5062015;28;20206;-72
2021/05/30 07:24:03;;;;;;;17.93;14.83;;;;;;;15.35;56.05;102482.47;5061588;28;20315;-72
2021/05/30 07:26:28;;;;;;;14.83;13.30;;;;;;;15.72;54.12;102483.13;5061511;28;20320;-72
2021/05/30 07:28:54;;;;;;;15.30;13.80;;;;;;;15.55;55.06;102484.59;5062057;28;20754;-72
2021/05/30 07:31:19;;;;;;;16.30;13.47;;;;;;;15.97;53.27;102479.16;5061407;28;20184;-71
2021/05/30 07:33:46;;;;;;;18.17;14.20;;;;;;;16.51;51.75;102473.75;5061305;28;20196;-72
2021/05/30 07:36:11;;;;;;;14.27;12.70;;;;;;;18.35;47.36;102470.16;5062079;28;20169;-71
2021/05/30 07:38:36;;;;;;;14.73;13.10;;;;;;;18.46;47.63;102471.09;5061748;28;20420;-72
2021/05/30 07:41:02;;;;;;;13.43;12.13;;;;;;;18.07;47.60;102470.00;5061255;28;20173;-72
2021/05/30 07:43:28;;;;;;;13.57;12.20;;;;;;;18.31;46.10;102466.63;5061796;28;20169;-72
2021/05/30 07:45:54;;;;;;;13.37;12.07;;;;;;;19.60;43.41;102469.59;5061283;28;20169;-72
2021/05/30 07:48:19;;;;;;;12.20;11.00;;;;;;;19.28;44.41;102479.28;5061310;28;20228;-73
2021/05/30 07:50:45;;;;;;;11.93;10.83;;;;;;;18.87;44.70;102479.19;5062667;28;20193;-73
2021/05/30 07:53:11;;;;;;;12.43;11.10;;;;;;;17.84;47.36;102485.66;5060884;28;20186;-72
2021/05/30 07:55:36;;;;;;;13.87;12.53;;;;;;;18.68;45.66;102487.91;5061091;28;20537;-72
2021/05/30 07:58:01;;;;;;;12.80;11.60;;;;;;;18.82;44.90;102484.44;5061237;28;20221;-72
2021/05/30 08:00:27;;;;;;;11.30;9.87;;;;;;;19.96;42.35;102478.44;5061001;28;20551;-72
2021/05/30 08:02:52;;;;;;;10.90;9.60;;;;;;;20.98;40.01;102475.41;5060866;28;20177;-72
2021/05/30 08:05:19;;;;;;;10.77;9.67;;;;;;;21.82;38.81;102479.19;5061450;28;20170;-73
2021/05/30 08:07:45;;;;;;;11.00;9.83;;;;;;;20.00;41.66;102485.47;5060794;28;20205;-73
2021/05/30 08:10:11;;;;;;;10.57;9.67;;;;;;;22.13;37.56;102484.19;5060881;28;20463;-73
2021/05/30 08:12:37;;;;;;;11.57;9.83;;;;;;;22.31;37.50;102482.22;5060268;28;20412;-72
2021/05/30 08:15:03;;;;;;;10.30;9.40;;;;;;;22.45;36.90;102480.31;5060743;28;20269;-72
2021/05/30 08:17:29;;;;;;;12.00;10.90;;;;;;;22.49;36.59;102476.72;5060584;28;20404;-72
2021/05/30 08:19:55;;;;;;;11.10;10.00;;;;;;;22.78;36.61;102479.88;5060925;28;20404;-73
2021/05/30 08:22:20;;;;;;;10.70;9.63;;;;;;;22.85;35.63;102473.56;5059670;28;20666;-73
2021/05/30 08:24:47;;;;;;;12.43;11.10;;;;;;;23.60;34.58;102471.56;5059803;28;20233;-73
2021/05/30 08:27:12;;;;;;;10.80;9.80;;;;;;;22.81;35.42;102475.41;5060835;28;20219;-72
2021/05/30 08:29:38;;;;;;;11.80;10.63;;;;;;;22.37;35.83;102474.22;5060291;28;20718;-73
2021/05/30 08:32:05;;;;;;;11.33;10.33;;;;;;;22.75;35.44;102479.94;5060010;28;20169;-73
2021/05/30 08:34:31;;;;;;;11.13;10.03;;;;;;;23.56;34.41;102472.50;5060713;28;20161;-73
2021/05/30 08:36:56;;;;;;;11.00;9.93;;;;;;;22.23;36.53;102476.09;5060060;28;20418;-73
2021/05/30 08:39:22;;;;;;;10.50;9.60;;;;;;;22.61;35.91;102475.69;5059985;28;20833;-74
2021/05/30 08:41:47;;;;;;;10.80;9.80;;;;;;;23.63;34.30;102468.81;5060403;28;20173;-74
2021/05/30 08:44:13;;;;;;;9.80;8.90;;;;;;;23.78;33.51;102462.34;5059327;28;20177;-74
2021/05/30 08:46:39;;;;;;;10.63;9.63;;;;;;;23.57;34.21;102468.94;5060216;28;20200;-73
2021/05/30 08:49:05;;;;;;;12.40;11.30;;;;;;;23.91;33.50;102472.81;5060358;28;20194;-73
2021/05/30 08:51:31;;;;;;;10.40;9.53;;;;;;;24.15;32.96;102472.34;5059782;28;20412;-74
2021/05/30 08:53:58;;;;;;;11.60;9.50;;;;;;;24.47;31.98;102473.47;5059897;28;20423;-74
2021/05/30 08:56:23;;;;;;;10.80;9.70;;;;;;;22.33;35.40;102477.78;5059691;28;20213;-74
2021/05/30 08:58:49;;;;;;;9.17;8.37;;;;;;;24.29;32.57;102463.16;5059810;28;20461;-74
2021/05/30 09:01:26;;;;;;;8.87;8.10;;;;;;;23.66;33.20;102474.09;5059492;28;20218;-73
2021/05/30 09:03:52;;;;;;;9.43;8.53;;;;;;;23.84;32.77;102472.91;5059611;28;20408;-73
2021/05/30 09:06:19;;;;;;;11.33;9.17;;;;;;;24.69;32.04;102473.91;5059743;28;20491;-75
2021/05/30 09:08:44;;;;;;;11.10;10.13;;;;;;;23.38;34.01;102484.31;5059856;28;20452;-73
2021/05/30 09:11:10;;;;;;;10.77;9.67;;;;;;;23.34;34.16;102478.19;5059273;28;20469;-72
2021/05/30 09:13:55;;;;;;;10.60;9.50;;;;;;;24.86;31.97;102475.31;5059560;28;20170;-72
2021/05/30 09:16:22;;;;;;;10.30;9.30;;;;;;;24.20;32.70;102465.13;5059606;28;20169;-72
2021/05/30 09:18:47;;;;;;;10.23;9.23;;;;;;;24.59;32.07;102472.31;5059453;28;20412;-72
2021/05/30 09:21:14;;;;;;;9.63;8.63;;;;;;;25.42;30.83;102464.22;5058918;28;20423;-72
2021/05/30 09:23:43;;;;;;;9.40;8.40;;;;;;;24.26;33.26;102468.56;5059333;28;20170;-72
2021/05/30 09:26:17;;;;;;;10.47;8.70;;;;;;;25.31;31.73;102468.94;5059141;28;20888;-72
2021/05/30 09:29:08;;;;;;;13.77;12.33;;;;;;;24.90;30.87;102455.66;5059213;28;20464;-72
2021/05/30 09:31:35;;;;;;;10.83;9.83;;;;;;;24.73;32.27;102466.72;5059096;28;20420;-72
2021/05/30 09:34:30;;;;;;;12.53;11.33;;;;;;;25.22;31.08;102457.56;5057850;28;20438;-72
2021/05/30 09:36:56;;;;;;;10.23;9.20;;;;;;;25.03;31.77;102458.91;5058005;28;20474;-70
2021/05/30 09:39:38;;;;;;;11.63;10.47;;;;;;;25.57;31.37;102454.94;5057666;28;20415;-69
2021/05/30 09:42:24;;;;;;;9.80;9.00;;;;;;;25.50;30.72;102451.53;5058950;28;20416;-70
2021/05/30 09:45:03;;;;;;;11.00;9.90;;;;;;;25.55;31.18;102449.63;5059006;28;20418;-69
2021/05/30 09:47:46;;;;;;;11.40;10.30;;;;;;;25.74;29.89;102449.16;5058731;28;20470;-69
2021/05/30 09:50:20;;;;;;;11.57;10.53;;;;;;;26.36;30.12;102452.78;5058828;28;20408;-69
2021/05/30 09:52:52;;;;;;;11.80;10.43;;;;;;;25.63;31.66;102454.78;5059418;28;20514;-71
2021/05/30 09:55:23;;;;;;;11.80;10.80;;;;;;;25.22;32.51;102454.91;5058744;28;20420;-70
2021/05/30 09:58:14;;;;;;;11.33;10.33;;;;;;;24.51;33.28;102460.94;5058657;28;20412;-68
2021/05/30 10:00:41;;;;;;;9.90;9.00;;;;;;;26.17;30.60;102456.00;5058470;28;20693;-68
2021/05/30 10:03:07;;;;;;;10.73;9.73;;;;;;;25.30;30.98;102461.81;5057753;28;20416;-68
2021/05/30 10:05:33;;;;;;;9.83;8.83;;;;;;;26.16;30.30;102450.69;5051036;28;20507;-68
2021/05/30 10:07:59;;;;;;;10.43;9.10;;;;;;;25.36;31.90;102456.38;5041738;28;20538;-68
2021/05/30 10:10:25;;;;;;;10.63;9.73;;;;;;;25.83;30.57;102456.03;5058866;28;20436;-68
2021/05/30 10:12:51;;;;;;;10.43;9.43;;;;;;;25.12;32.29;102450.69;5058238;28;20485;-69
2021/05/30 10:15:16;;;;;;;10.03;9.13;;;;;;;24.02;33.76;102460.19;5057821;28;20415;-69
2021/05/30 10:17:42;;;;;;;11.40;10.30;;;;;;;25.30;32.41;102456.47;5058251;28;20173;-68
2021/05/30 10:20:19;;;;;;;10.53;8.87;;;;;;;26.48;30.96;102452.44;5057628;28;20181;-68
2021/05/30 10:22:49;;;;;;;9.80;8.90;;;;;;;26.76;30.06;102454.25;5037748;28;20417;-69
2021/05/30 10:25:23;;;;;;;8.90;8.00;;;;;;;27.48;27.90;102442.13;5037496;28;20457;-67
2021/05/30 10:28:06;;;;;;;9.13;8.33;;;;;;;26.39;28.22;102450.03;5038226;28;20483;-67
2021/05/30 10:30:31;;;;;;;8.80;8.00;;;;;;;25.82;29.95;102460.50;5038348;28;20405;-67
2021/05/30 10:33:11;;;;;;;10.27;9.37;;;;;;;24.22;33.14;102451.78;5037874;28;20482;-69
2021/05/30 10:35:37;;;;;;;9.30;8.30;;;;;;;25.23;31.42;102450.41;5038229;28;20166;-69
2021/05/30 10:38:02;;;;;;;9.40;8.50;;;;;;;25.13;31.25;102452.44;5038108;28;20416;-69
2021/05/30 10:40:37;;;;;;;11.00;9.00;;;;;;;25.38;31.31;102447.41;5038178;28;20189;-70
2021/05/30 10:43:09;;;;;;;9.53;8.63;;;;;;;25.17;32.01;102451.44;5037945;28;20609;-71
2021/05/30 10:45:44;;;;;;;9.27;8.40;;;;;;;25.52;31.27;102447.06;5037699;28;20405;-69
2021/05/30 10:48:11;;;;;;;9.80;8.97;;;;;;;25.71;31.37;102443.91;5038037;28;20884;-69
2021/05/30 10:51:42;;;;;;;11.13;8.67;;;;;;;25.85;31.35;102440.84;5038040;28;20853;-69
2021/05/30 10:53:46;;;;;;;10.70;9.53;;;;;;;25.32;31.94;102435.97;5037725;28;20456;-70
2021/05/30 10:56:22;;;;;;;12.90;11.40;;;;;;;25.65;30.82;102438.72;5037993;28;20423;-70
2021/05/30 10:59:06;;;;;;;10.20;8.27;;;;;;;25.45;31.15;102437.47;5037968;28;20666;-69
2021/05/30 11:01:34;;;;;;;10.30;9.20;;;;;;;24.88;32.63;102442.38;5037774;28;20443;-69
2021/05/30 11:04:28;;;;;;;10.60;9.50;;;;;;;26.11;31.05;102447.28;5037964;28;20482;-69
2021/05/30 11:07:31;;;;;;;11.43;9.00;;;;;;;25.65;31.12;102441.38;5037637;28;20409;-69
2021/05/30 11:10:01;;;;;;;10.40;9.40;;;;;;;26.25;30.97;102434.41;5037731;28;20410;-69
2021/05/30 11:12:32;;;;;;;13.33;12.00;;;;;;;26.37;31.03;102433.13;5037042;28;20496;-70
2021/05/30 11:15:10;;;;;;;10.33;9.13;;;;;;;25.45;31.14;102429.44;5037852;28;20684;-70